createdAt,value
2023-04-22T00:03:09.546Z,66031.78
2023-04-22T00:08:15.260Z,65974.34
2023-04-22T00:13:19.409Z,65978.25
2023-04-22T00:18:23.528Z,65968.63
2023-04-22T00:23:29.195Z,65931.72
2023-04-22T00:28:33.252Z,65987.97
2023-04-22T00:33:37.292Z,65975.50
2023-04-22T00:38:47.819Z,66029.19
2023-04-22T00:43:53.606Z,65995.47
2023-04-22T00:48:58.618Z,66017.41
2023-04-22T00:54:04.862Z,65844.97
2023-04-22T00:59:10.920Z,65933.41
2023-04-22T01:04:16.093Z,65758.59
2023-04-22T01:09:25.822Z,65759.22
2023-04-22T01:14:30.697Z,65747.72
2023-04-22T01:19:34.913Z,65754.66
2023-04-22T01:24:40.892Z,65729.03
2023-04-22T01:29:44.882Z,65711.50
2023-04-22T01:34:49.252Z,65776.75
2023-04-22T01:39:55.523Z,65853.63
2023-04-22T01:44:59.812Z,65864.84
2023-04-22T01:50:04.120Z,65864.44
2023-04-22T01:55:10.868Z,65800.72
2023-04-22T02:00:15.431Z,65717.28
2023-04-22T02:05:25.005Z,65636.44
2023-04-22T02:10:30.693Z,65894.38
2023-04-22T02:15:34.982Z,65919.94
2023-04-22T02:20:39.126Z,65829.03
2023-04-22T02:25:50.288Z,65741.50
2023-04-22T02:30:56.016Z,65805.09
2023-04-22T02:36:00.280Z,65838.66
2023-04-22T02:41:06.322Z,65921.53
2023-04-22T02:46:56.554Z,65899.09
2023-04-22T02:52:00.564Z,65899.16
2023-04-22T02:57:04.792Z,65842.50
2023-04-22T03:02:11.578Z,65850.44
2023-04-22T03:07:33.320Z,65783.78
2023-04-22T03:12:37.661Z,65830.03
2023-04-22T03:17:43.311Z,65929.03
2023-04-22T03:22:50.280Z,65871.81
2023-04-22T03:27:54.495Z,65844.66
2023-04-22T03:33:00.252Z,65776.75
2023-04-22T03:38:24.898Z,65919.94
2023-04-22T03:43:29.127Z,65848.19
2023-04-22T03:48:42.957Z,65809.34
2023-04-22T03:54:00.059Z,65911.38
2023-04-22T03:59:07.352Z,65953.03
2023-04-22T04:04:13.460Z,65936.63
2023-04-22T04:09:31.909Z,65964.44
2023-04-22T04:14:35.901Z,65984.66
2023-04-22T04:19:43.350Z,66059.09
2023-04-22T04:24:47.795Z,66061.94
2023-04-22T04:29:57.477Z,66020.97
2023-04-22T04:35:18.507Z,66035.00
2023-04-22T04:40:30.900Z,65940.56
2023-04-22T04:45:49.074Z,66037.75
2023-04-22T04:50:59.463Z,66060.81
2023-04-22T04:56:08.874Z,66084.34
2023-04-22T05:01:13.284Z,66128.09
2023-04-22T05:06:21.278Z,66186.59
2023-04-22T05:11:36.889Z,66210.09
2023-04-22T05:16:48.413Z,66149.81
2023-04-22T05:21:54.402Z,66168.28
2023-04-22T05:26:58.838Z,66141.66
2023-04-22T05:32:03.601Z,66281.59
2023-04-22T05:37:11.002Z,66254.25
2023-04-22T05:42:20.340Z,66249.44
2023-04-22T05:47:24.285Z,66232.78
2023-04-22T05:52:30.561Z,66310.66
2023-04-22T05:57:50.781Z,66408.06
2023-04-22T06:03:15.699Z,66559.75
2023-04-22T06:08:21.297Z,66527.31
2023-04-22T06:13:27.935Z,66667.13
2023-04-22T06:18:32.458Z,66644.59
2023-04-22T06:23:38.779Z,66672.13
2023-04-22T06:28:42.807Z,66688.88
2023-04-22T06:33:53.510Z,66719.84
2023-04-22T06:38:59.092Z,66612.34
2023-04-22T06:44:16.343Z,66668.19
2023-04-22T06:49:20.537Z,66746.84
2023-04-22T06:54:56.830Z,66695.78
2023-04-22T07:00:01.608Z,66951.66
2023-04-22T07:05:06.585Z,66893.31
2023-04-22T07:10:14.770Z,66847.66
2023-04-22T07:15:28.403Z,66902.00
2023-04-22T07:20:32.528Z,66876.66
2023-04-22T07:25:37.935Z,66966.53
2023-04-22T07:30:41.975Z,66877.13
2023-04-22T07:35:46.255Z,66954.75
2023-04-22T07:40:51.866Z,66976.91
2023-04-22T07:45:55.695Z,66951.97
2023-04-22T07:50:59.643Z,67013.50
2023-04-22T08:01:06.615Z,67098.25
2023-04-22T08:06:10.740Z,67156.47
2023-04-22T08:11:14.758Z,67130.69
2023-04-22T08:16:20.190Z,67174.41
2023-04-22T08:21:23.903Z,66942.44
2023-04-22T08:26:27.948Z,66951.03
2023-04-22T08:31:33.423Z,67035.53
2023-04-22T08:36:37.379Z,67014.66
2023-04-22T08:41:45.057Z,66973.16
2023-04-22T08:46:51.033Z,67200.25
2023-04-22T08:51:56.189Z,67126.31
2023-04-22T08:57:02.559Z,67038.41
2023-04-22T09:02:08.831Z,67095.50
2023-04-22T09:07:15.404Z,67254.28
2023-04-22T09:12:19.510Z,67360.56
2023-04-22T09:17:33.854Z,67194.88
2023-04-22T09:22:43.391Z,67198.63
2023-04-22T09:27:51.693Z,67218.00
2023-04-22T09:32:58.404Z,67275.75
2023-04-22T09:38:03.556Z,67270.41
2023-04-22T09:43:09.527Z,67271.50
2023-04-22T09:48:16.606Z,67372.00
2023-04-22T09:53:22.050Z,67362.81
2023-04-22T09:58:27.824Z,67343.34
2023-04-22T10:03:33.350Z,67433.56
2023-04-22T10:08:37.681Z,67346.59
2023-04-22T10:13:41.686Z,67341.19
2023-04-22T10:18:48.666Z,67178.13
2023-04-22T10:23:52.830Z,67042.69
2023-04-22T10:28:58.892Z,67127.91
2023-04-22T10:34:14.745Z,67006.50
2023-04-22T10:39:19.101Z,67031.34
2023-04-22T10:44:23.627Z,67089.00
2023-04-22T10:49:32.292Z,67075.47
2023-04-22T10:55:03.310Z,67087.88
2023-04-22T11:00:52.262Z,67040.53
2023-04-22T11:06:18.500Z,67117.06
2023-04-22T11:11:22.507Z,67169.44
2023-04-22T11:16:26.607Z,67159.78
2023-04-22T11:21:33.048Z,67283.97
2023-04-22T11:26:37.777Z,67192.72
2023-04-22T11:31:48.045Z,67219.63
2023-04-22T11:36:53.347Z,67170.50
2023-04-22T11:41:57.240Z,67201.81
2023-04-22T11:47:02.480Z,67338.47
2023-04-22T11:52:07.847Z,67462.34
2023-04-22T11:57:15.637Z,67805.66
2023-04-22T12:02:19.815Z,68013.91
2023-04-22T12:07:27.806Z,68085.50
2023-04-22T12:12:33.075Z,68049.06
2023-04-22T12:17:37.039Z,68049.75
2023-04-22T12:22:42.556Z,68017.06
2023-04-22T12:27:46.573Z,67958.47
2023-04-22T12:32:50.609Z,68027.44
2023-04-22T12:37:55.914Z,68046.41
2023-04-22T12:42:59.846Z,68142.97
2023-04-22T12:48:03.831Z,67945.56
2023-04-22T12:53:09.581Z,67814.75
2023-04-22T12:58:13.600Z,67563.47
2023-04-22T13:03:17.716Z,67449.41
2023-04-22T13:08:23.212Z,67468.78
2023-04-22T13:13:26.988Z,67521.81
2023-04-22T13:18:30.963Z,67528.88
2023-04-22T13:23:36.580Z,67634.97
2023-04-22T13:28:40.580Z,67744.88
2023-04-22T13:33:46.642Z,67922.66
2023-04-22T13:38:52.066Z,67832.69
2023-04-22T13:43:56.497Z,67873.97
2023-04-22T13:49:00.468Z,67923.28
2023-04-22T13:54:06.280Z,67724.34
2023-04-22T13:59:10.193Z,67597.06
2023-04-22T14:04:14.509Z,67750.28
2023-04-22T14:09:19.914Z,67802.91
2023-04-22T14:14:23.894Z,67856.56
2023-04-22T14:19:29.072Z,67779.06
2023-04-22T14:24:34.411Z,67723.22
2023-04-22T14:29:38.569Z,67839.16
2023-04-22T14:34:42.671Z,67784.97
2023-04-22T14:39:48.066Z,67702.66
2023-04-22T14:44:52.100Z,67704.22
2023-04-22T14:49:56.034Z,67634.91
2023-04-22T14:55:11.813Z,67731.31
2023-04-22T15:00:20.150Z,67770.38
2023-04-22T15:05:24.422Z,67666.72
2023-04-22T15:10:29.800Z,67506.59
2023-04-22T15:15:34.060Z,67488.84
2023-04-22T15:20:38.158Z,67401.78
2023-04-22T15:25:43.952Z,67581.38
2023-04-22T15:30:48.757Z,67748.69
2023-04-22T15:35:52.699Z,67706.94
2023-04-22T15:40:58.420Z,67716.69
2023-04-22T15:46:02.489Z,67634.47
2023-04-22T15:51:06.483Z,67518.06
2023-04-22T15:56:12.073Z,67553.13
2023-04-22T16:01:19.194Z,67630.75
2023-04-22T16:06:24.059Z,67655.53
2023-04-22T16:11:30.418Z,67645.25
2023-04-22T16:16:34.501Z,67610.66
2023-04-22T16:21:38.645Z,67512.16
2023-04-22T16:26:44.224Z,67457.97
2023-04-22T16:31:48.341Z,67301.78
2023-04-22T16:36:52.592Z,67190.53
2023-04-22T16:41:58.265Z,67157.63
2023-04-22T16:47:02.412Z,67104.72
2023-04-22T16:52:06.582Z,67007.09
2023-04-22T16:57:12.605Z,66934.28
2023-04-22T17:02:16.758Z,66946.13
2023-04-22T17:07:24.163Z,67003.19
2023-04-22T17:12:29.887Z,66970.38
2023-04-22T17:17:33.748Z,66998.31
2023-04-22T17:22:38.235Z,67012.47
2023-04-22T17:27:43.756Z,66975.22
2023-04-22T17:32:47.906Z,66961.81
2023-04-22T17:37:53.670Z,66988.72
2023-04-22T17:42:58.787Z,66913.16
2023-04-22T17:48:02.831Z,66917.59
2023-04-22T17:53:07.110Z,66993.00
2023-04-22T17:58:12.508Z,66957.50
2023-04-22T18:03:16.970Z,66925.53
2023-04-22T18:08:21.128Z,66889.47
2023-04-22T18:13:26.465Z,66876.66
2023-04-22T18:18:30.421Z,66868.03
2023-04-22T18:23:35.206Z,66834.06
2023-04-22T18:28:41.230Z,66777.44
2023-04-22T18:33:45.393Z,66773.28
2023-04-22T18:38:49.432Z,66704.88
2023-04-22T18:43:55.047Z,66732.91
2023-04-22T18:48:59.102Z,66737.00
2023-04-22T18:54:03.508Z,66728.47
2023-04-22T18:59:08.957Z,66732.84
2023-04-22T19:04:13.009Z,66687.63
2023-04-22T19:09:17.221Z,66517.19
2023-04-22T19:14:22.689Z,66617.78
2023-04-22T19:19:27.034Z,66470.28
2023-04-22T19:24:33.520Z,66514.50
2023-04-22T19:29:39.401Z,66421.22
2023-04-22T19:34:44.863Z,66353.84
2023-04-22T19:39:48.816Z,66391.13
2023-04-22T19:44:54.847Z,66458.78
2023-04-22T19:49:59.543Z,66500.53
2023-04-22T19:55:09.007Z,66547.19
2023-04-22T20:00:15.398Z,66502.69
2023-04-22T20:05:21.078Z,66387.75
2023-04-22T20:10:26.500Z,66452.97
2023-04-22T20:15:33.121Z,66447.44
2023-04-22T20:20:37.774Z,66330.41
2023-04-22T20:25:45.743Z,66380.88
2023-04-22T20:30:51.444Z,66383.38
2023-04-22T20:35:55.662Z,66386.22
2023-04-22T20:41:02.013Z,66343.75
2023-04-22T20:46:07.572Z,66364.28
2023-04-22T20:51:12.488Z,66252.56
2023-04-22T20:56:16.444Z,66283.66
2023-04-22T21:01:21.993Z,66284.81
2023-04-22T21:06:28.522Z,66280.59
2023-04-22T21:11:33.019Z,66236.97
2023-04-22T21:16:41.354Z,66266.50
2023-04-22T21:21:48.011Z,66336.84
2023-04-22T21:26:52.496Z,66289.00
2023-04-22T21:32:08.136Z,66262.81
2023-04-22T21:37:13.162Z,66266.06
2023-04-22T21:42:17.298Z,66289.47
2023-04-22T21:47:22.837Z,66271.41
2023-04-22T21:52:27.352Z,66279.38
2023-04-22T21:57:31.723Z,66261.66
2023-04-22T22:02:37.332Z,66256.41
2023-04-22T22:07:41.822Z,66270.34
2023-04-22T22:12:46.770Z,66282.13
2023-04-22T22:17:52.206Z,66263.28
2023-04-22T22:22:58.729Z,66377.09
2023-04-22T22:28:02.957Z,66290.63
2023-04-22T22:33:08.400Z,66317.91
2023-04-22T22:38:12.461Z,66248.34
2023-04-22T22:43:16.411Z,66262.75
2023-04-22T22:48:21.780Z,66232.16
2023-04-22T22:53:25.944Z,66170.97
2023-04-22T22:58:30.044Z,66193.66
2023-04-22T23:03:37.249Z,66228.94
2023-04-22T23:08:41.405Z,66222.44
2023-04-22T23:13:45.597Z,66188.22
2023-04-22T23:18:53.249Z,66158.34
2023-04-22T23:23:58.344Z,66134.63
2023-04-22T23:29:02.845Z,66154.44
2023-04-22T23:34:08.977Z,66099.88
2023-04-22T23:39:13.191Z,66122.28
2023-04-22T23:44:17.125Z,66213.47
2023-04-22T23:49:22.801Z,66196.88
2023-04-22T23:54:27.305Z,66172.56
2023-04-22T23:59:32.028Z,66148.00
